createdAt,value
2022-07-29T00:01:35.227Z,7.70
2022-07-29T00:16:35.401Z,6.70
2022-07-29T00:31:35.577Z,8.90
2022-07-29T00:46:35.692Z,12.10
2022-07-29T01:01:35.791Z,9.90
2022-07-29T01:16:36.258Z,9.20
2022-07-29T01:31:37.152Z,11.10
2022-07-29T01:46:44.298Z,11.10
2022-07-29T02:01:45.138Z,8.90
2022-07-29T02:16:46.251Z,10.50
2022-07-29T02:31:47.784Z,9.60
2022-07-29T02:46:48.264Z,11.30
2022-07-29T03:01:48.446Z,9.70
2022-07-29T03:16:48.391Z,7.00
2022-07-29T03:31:49.014Z,9.30
2022-07-29T03:46:50.770Z,8.40
2022-07-29T04:01:51.460Z,6.70
2022-07-29T04:16:51.691Z,6.10
2022-07-29T04:31:52.011Z,8.10
2022-07-29T04:46:52.302Z,5.20
2022-07-29T05:01:52.609Z,7.50
2022-07-29T05:16:52.709Z,7.20
2022-07-29T05:31:52.926Z,6.00
2022-07-29T05:46:53.104Z,6.00
2022-07-29T06:01:53.405Z,6.00
2022-07-29T06:16:53.536Z,12.70
2022-07-29T06:31:54.248Z,5.40
2022-07-29T06:46:54.914Z,8.60
2022-07-29T07:01:55.142Z,7.70
2022-07-29T07:16:55.401Z,5.70
2022-07-29T07:32:00.472Z,5.20
2022-07-29T07:47:03.920Z,4.50
2022-07-29T08:02:06.341Z,5.40
2022-07-29T08:17:06.380Z,298.30
2022-07-29T08:32:07.115Z,1999.90
2022-07-29T08:47:07.672Z,1999.90
2022-07-29T09:02:07.864Z,1687.30
2022-07-29T09:17:09.013Z,1999.90
2022-07-29T09:32:09.121Z,1069.90
2022-07-29T09:47:09.970Z,31.60
2022-07-29T10:02:11.507Z,93.00
2022-07-29T10:17:14.041Z,1999.90
2022-07-29T10:32:14.721Z,1999.90
2022-07-29T10:47:14.945Z,1999.90
2022-07-29T11:02:36.505Z,1999.90
2022-07-29T11:17:20.445Z,1999.90
2022-07-29T11:32:23.491Z,1999.90
2022-07-29T11:47:24.323Z,1999.90
2022-07-29T12:02:37.566Z,1999.90
2022-07-29T12:17:33.597Z,1999.90
2022-07-29T12:32:33.923Z,1999.90
2022-07-29T12:47:34.603Z,1999.90
2022-07-29T13:02:34.692Z,1999.90
2022-07-29T13:17:37.836Z,1999.90
2022-07-29T13:32:42.490Z,1999.90
2022-07-29T13:47:47.671Z,1999.90
2022-07-29T14:02:48.315Z,1999.90
2022-07-29T14:17:49.266Z,1999.90
2022-07-29T14:32:49.618Z,1999.90
2022-07-29T14:47:49.797Z,1999.90
2022-07-29T15:03:01.939Z,1999.90
2022-07-29T15:17:56.129Z,1999.90
2022-07-29T15:32:56.347Z,1999.90
2022-07-29T15:47:58.055Z,1999.90
2022-07-29T16:02:58.683Z,1999.90
2022-07-29T16:17:58.894Z,1972.60
2022-07-29T16:32:59.109Z,709.00
2022-07-29T16:48:01.090Z,367.70
2022-07-29T17:03:01.391Z,704.00
2022-07-29T17:18:01.611Z,1191.80
2022-07-29T17:33:06.685Z,267.20
2022-07-29T17:48:06.814Z,288.00
2022-07-29T18:03:07.578Z,148.50
2022-07-29T18:18:08.180Z,100.10
2022-07-29T18:33:24.305Z,79.10
2022-07-29T18:48:15.363Z,40.70
2022-07-29T19:03:16.456Z,21.40
2022-07-29T19:18:16.601Z,17.80
2022-07-29T19:33:16.512Z,14.80
2022-07-29T19:48:16.735Z,9.70
2022-07-29T20:03:17.460Z,9.00
2022-07-29T20:18:18.568Z,5.00
2022-07-29T20:33:19.280Z,5.90
2022-07-29T20:48:19.552Z,12.60
2022-07-29T21:03:19.772Z,207.10
2022-07-29T21:18:19.868Z,1999.90
2022-07-29T21:33:20.644Z,1999.90
2022-07-29T21:48:21.363Z,1999.90
2022-07-29T22:03:21.455Z,1999.90
2022-07-29T22:18:22.114Z,1999.90
2022-07-29T22:33:22.788Z,1999.90
2022-07-29T22:48:22.940Z,1999.90
2022-07-29T23:03:23.094Z,1999.90
2022-07-29T23:18:23.174Z,1999.90
2022-07-29T23:33:23.346Z,1999.90
2022-07-29T23:48:23.982Z,1999.90
